sensor_id;sensor_type;location;lat;lon;timestamp;P1;durP1;ratioP1;P2;durP2;ratioP2
10554;SDS011;5326;51.522;7.388;2022-10-15T00:00:36;8.80;;;8.00;;
10554;SDS011;5326;51.522;7.388;2022-10-15T00:03:03;9.87;;;7.60;;
10554;SDS011;5326;51.522;7.388;2022-10-15T00:05:30;8.33;;;7.37;;
10554;SDS011;5326;51.522;7.388;2022-10-15T00:07:56;10.77;;;7.70;;
10554;SDS011;5326;51.522;7.388;2022-10-15T00:10:23;8.83;;;8.03;;
10554;SDS011;5326;51.522;7.388;2022-10-15T00:12:49;8.70;;;7.57;;
10554;SDS011;5326;51.522;7.388;2022-10-15T00:15:16;8.80;;;7.90;;
10554;SDS011;5326;51.522;7.388;2022-10-15T00:17:43;8.63;;;7.03;;
10554;SDS011;5326;51.522;7.388;2022-10-15T00:20:10;9.00;;;7.50;;
10554;SDS011;5326;51.522;7.388;2022-10-15T00:22:37;10.53;;;7.03;;
10554;SDS011;5326;51.522;7.388;2022-10-15T00:25:04;8.33;;;7.43;;
10554;SDS011;5326;51.522;7.388;2022-10-15T00:27:31;7.40;;;6.70;;
10554;SDS011;5326;51.522;7.388;2022-10-15T00:29:58;7.93;;;7.10;;
10554;SDS011;5326;51.522;7.388;2022-10-15T00:32:28;8.40;;;7.60;;
10554;SDS011;5326;51.522;7.388;2022-10-15T00:34:56;9.63;;;7.13;;
10554;SDS011;5326;51.522;7.388;2022-10-15T00:37:22;9.03;;;7.43;;
10554;SDS011;5326;51.522;7.388;2022-10-15T00:39:49;10.47;;;7.90;;
10554;SDS011;5326;51.522;7.388;2022-10-15T00:42:16;10.57;;;7.83;;
10554;SDS011;5326;51.522;7.388;2022-10-15T00:44:53;8.57;;;7.67;;
10554;SDS011;5326;51.522;7.388;2022-10-15T00:50:06;10.23;;;7.40;;
10554;SDS011;5326;51.522;7.388;2022-10-15T00:52:40;11.03;;;7.63;;
10554;SDS011;5326;51.522;7.388;2022-10-15T00:55:15;7.90;;;7.20;;
10554;SDS011;5326;51.522;7.388;2022-10-15T00:57:44;10.23;;;7.00;;
10554;SDS011;5326;51.522;7.388;2022-10-15T01:00:13;11.53;;;8.03;;
10554;SDS011;5326;51.522;7.388;2022-10-15T01:02:41;9.67;;;7.77;;
10554;SDS011;5326;51.522;7.388;2022-10-15T01:05:09;11.53;;;7.57;;
10554;SDS011;5326;51.522;7.388;2022-10-15T01:07:36;10.27;;;8.10;;
10554;SDS011;5326;51.522;7.388;2022-10-15T01:10:03;9.73;;;8.00;;
10554;SDS011;5326;51.522;7.388;2022-10-15T01:15:31;8.47;;;7.63;;
10554;SDS011;5326;51.522;7.388;2022-10-15T01:18:03;8.70;;;7.70;;
10554;SDS011;5326;51.522;7.388;2022-10-15T01:20:50;8.73;;;7.80;;
10554;SDS011;5326;51.522;7.388;2022-10-15T01:32:11;8.97;;;7.13;;
10554;SDS011;5326;51.522;7.388;2022-10-15T01:40:05;9.17;;;7.33;;
10554;SDS011;5326;51.522;7.388;2022-10-15T01:42:53;10.90;;;7.77;;
10554;SDS011;5326;51.522;7.388;2022-10-15T01:45:45;10.10;;;7.43;;
10554;SDS011;5326;51.522;7.388;2022-10-15T01:48:11;8.27;;;7.40;;
10554;SDS011;5326;51.522;7.388;2022-10-15T01:50:42;7.63;;;6.93;;
10554;SDS011;5326;51.522;7.388;2022-10-15T01:53:13;7.50;;;6.80;;
10554;SDS011;5326;51.522;7.388;2022-10-15T01:55:41;6.97;;;6.33;;
10554;SDS011;5326;51.522;7.388;2022-10-15T01:58:09;7.53;;;6.73;;
10554;SDS011;5326;51.522;7.388;2022-10-15T02:00:38;7.70;;;6.77;;
10554;SDS011;5326;51.522;7.388;2022-10-15T02:03:06;10.07;;;6.77;;
10554;SDS011;5326;51.522;7.388;2022-10-15T02:05:37;7.87;;;6.93;;
10554;SDS011;5326;51.522;7.388;2022-10-15T02:08:09;10.90;;;7.93;;
10554;SDS011;5326;51.522;7.388;2022-10-15T02:10:50;7.77;;;7.07;;
10554;SDS011;5326;51.522;7.388;2022-10-15T02:16:09;9.47;;;8.40;;
10554;SDS011;5326;51.522;7.388;2022-10-15T02:21:45;8.80;;;6.50;;
10554;SDS011;5326;51.522;7.388;2022-10-15T02:24:21;7.60;;;6.80;;
10554;SDS011;5326;51.522;7.388;2022-10-15T02:26:53;7.53;;;6.83;;
10554;SDS011;5326;51.522;7.388;2022-10-15T02:29:22;9.77;;;8.77;;
10554;SDS011;5326;51.522;7.388;2022-10-15T02:31:52;8.63;;;7.83;;
10554;SDS011;5326;51.522;7.388;2022-10-15T02:34:20;7.70;;;7.00;;
10554;SDS011;5326;51.522;7.388;2022-10-15T02:36:48;7.87;;;7.07;;
10554;SDS011;5326;51.522;7.388;2022-10-15T02:39:17;7.53;;;6.80;;
10554;SDS011;5326;51.522;7.388;2022-10-15T02:41:46;7.33;;;6.70;;
10554;SDS011;5326;51.522;7.388;2022-10-15T02:44:13;7.57;;;6.40;;
10554;SDS011;5326;51.522;7.388;2022-10-15T02:46:40;6.73;;;6.03;;
10554;SDS011;5326;51.522;7.388;2022-10-15T02:49:06;7.30;;;6.53;;
10554;SDS011;5326;51.522;7.388;2022-10-15T02:51:33;8.07;;;6.57;;
10554;SDS011;5326;51.522;7.388;2022-10-15T02:54:01;8.03;;;7.20;;
10554;SDS011;5326;51.522;7.388;2022-10-15T02:56:29;7.03;;;6.43;;
10554;SDS011;5326;51.522;7.388;2022-10-15T02:59:00;7.80;;;7.00;;
10554;SDS011;5326;51.522;7.388;2022-10-15T03:01:27;7.57;;;6.73;;
10554;SDS011;5326;51.522;7.388;2022-10-15T03:03:53;7.80;;;7.00;;
10554;SDS011;5326;51.522;7.388;2022-10-15T03:06:20;8.30;;;7.50;;
10554;SDS011;5326;51.522;7.388;2022-10-15T03:08:46;12.53;;;7.93;;
10554;SDS011;5326;51.522;7.388;2022-10-15T03:11:13;11.20;;;8.80;;
10554;SDS011;5326;51.522;7.388;2022-10-15T03:13:39;9.10;;;7.80;;
10554;SDS011;5326;51.522;7.388;2022-10-15T03:16:07;13.07;;;8.47;;
10554;SDS011;5326;51.522;7.388;2022-10-15T03:18:35;14.93;;;8.17;;
10554;SDS011;5326;51.522;7.388;2022-10-15T03:21:06;9.57;;;8.60;;
10554;SDS011;5326;51.522;7.388;2022-10-15T03:23:32;10.70;;;8.43;;
10554;SDS011;5326;51.522;7.388;2022-10-15T03:26:04;9.97;;;8.30;;
10554;SDS011;5326;51.522;7.388;2022-10-15T03:28:30;11.47;;;9.70;;
10554;SDS011;5326;51.522;7.388;2022-10-15T03:30:57;10.97;;;9.53;;
10554;SDS011;5326;51.522;7.388;2022-10-15T03:33:25;11.27;;;9.73;;
10554;SDS011;5326;51.522;7.388;2022-10-15T03:35:51;14.07;;;9.53;;
10554;SDS011;5326;51.522;7.388;2022-10-15T03:38:18;11.40;;;9.17;;
10554;SDS011;5326;51.522;7.388;2022-10-15T03:40:45;11.70;;;9.00;;
10554;SDS011;5326;51.522;7.388;2022-10-15T03:43:11;10.23;;;8.57;;
10554;SDS011;5326;51.522;7.388;2022-10-15T03:45:38;8.77;;;7.90;;
10554;SDS011;5326;51.522;7.388;2022-10-15T03:48:04;11.33;;;9.00;;
10554;SDS011;5326;51.522;7.388;2022-10-15T03:50:31;10.80;;;7.97;;
10554;SDS011;5326;51.522;7.388;2022-10-15T03:52:58;9.07;;;8.17;;
10554;SDS011;5326;51.522;7.388;2022-10-15T03:55:24;11.30;;;8.20;;
10554;SDS011;5326;51.522;7.388;2022-10-15T03:57:51;11.10;;;10.00;;
10554;SDS011;5326;51.522;7.388;2022-10-15T04:00:18;14.20;;;10.73;;
10554;SDS011;5326;51.522;7.388;2022-10-15T04:02:44;11.87;;;10.10;;
10554;SDS011;5326;51.522;7.388;2022-10-15T04:05:11;14.90;;;10.60;;
10554;SDS011;5326;51.522;7.388;2022-10-15T04:07:37;11.30;;;10.10;;
10554;SDS011;5326;51.522;7.388;2022-10-15T04:10:04;13.93;;;9.60;;
10554;SDS011;5326;51.522;7.388;2022-10-15T04:12:31;10.60;;;9.13;;
10554;SDS011;5326;51.522;7.388;2022-10-15T04:14:58;10.00;;;9.00;;
10554;SDS011;5326;51.522;7.388;2022-10-15T04:17:27;12.17;;;10.93;;
10554;SDS011;5326;51.522;7.388;2022-10-15T04:19:53;11.60;;;10.07;;
10554;SDS011;5326;51.522;7.388;2022-10-15T04:22:20;11.77;;;10.50;;
10554;SDS011;5326;51.522;7.388;2022-10-15T04:24:47;16.50;;;9.63;;
10554;SDS011;5326;51.522;7.388;2022-10-15T04:27:14;10.30;;;8.80;;
10554;SDS011;5326;51.522;7.388;2022-10-15T04:29:46;10.50;;;9.40;;
10554;SDS011;5326;51.522;7.388;2022-10-15T04:32:14;10.93;;;9.60;;
10554;SDS011;5326;51.522;7.388;2022-10-15T04:34:41;9.97;;;8.97;;
10554;SDS011;5326;51.522;7.388;2022-10-15T04:37:07;10.53;;;9.43;;
10554;SDS011;5326;51.522;7.388;2022-10-15T04:39:34;11.53;;;8.80;;
10554;SDS011;5326;51.522;7.388;2022-10-15T04:42:00;9.90;;;8.70;;
10554;SDS011;5326;51.522;7.388;2022-10-15T04:44:27;11.80;;;9.17;;
10554;SDS011;5326;51.522;7.388;2022-10-15T04:46:53;11.17;;;8.97;;
10554;SDS011;5326;51.522;7.388;2022-10-15T04:49:20;10.53;;;9.20;;
10554;SDS011;5326;51.522;7.388;2022-10-15T04:51:47;11.13;;;10.03;;
10554;SDS011;5326;51.522;7.388;2022-10-15T04:54:13;10.07;;;8.97;;
10554;SDS011;5326;51.522;7.388;2022-10-15T04:56:40;12.90;;;9.10;;
10554;SDS011;5326;51.522;7.388;2022-10-15T04:59:07;11.77;;;8.97;;
10554;SDS011;5326;51.522;7.388;2022-10-15T05:01:34;11.23;;;8.63;;
10554;SDS011;5326;51.522;7.388;2022-10-15T05:04:00;11.57;;;8.50;;
10554;SDS011;5326;51.522;7.388;2022-10-15T05:06:27;9.93;;;8.93;;
10554;SDS011;5326;51.522;7.388;2022-10-15T05:08:53;11.63;;;10.53;;
10554;SDS011;5326;51.522;7.388;2022-10-15T05:11:21;13.43;;;10.13;;
10554;SDS011;5326;51.522;7.388;2022-10-15T05:13:49;11.03;;;9.87;;
10554;SDS011;5326;51.522;7.388;2022-10-15T05:16:17;12.90;;;11.00;;
10554;SDS011;5326;51.522;7.388;2022-10-15T05:18:46;13.30;;;10.47;;
10554;SDS011;5326;51.522;7.388;2022-10-15T05:21:14;15.70;;;10.10;;
10554;SDS011;5326;51.522;7.388;2022-10-15T05:23:42;11.90;;;9.47;;
10554;SDS011;5326;51.522;7.388;2022-10-15T05:26:10;14.03;;;10.80;;
10554;SDS011;5326;51.522;7.388;2022-10-15T05:28:37;11.97;;;10.33;;
10554;SDS011;5326;51.522;7.388;2022-10-15T05:31:05;12.77;;;11.33;;
10554;SDS011;5326;51.522;7.388;2022-10-15T05:33:32;15.83;;;12.93;;
10554;SDS011;5326;51.522;7.388;2022-10-15T05:38:38;19.20;;;15.83;;
10554;SDS011;5326;51.522;7.388;2022-10-15T05:41:06;19.33;;;15.60;;
10554;SDS011;5326;51.522;7.388;2022-10-15T05:43:32;15.40;;;13.83;;
10554;SDS011;5326;51.522;7.388;2022-10-15T05:46:04;18.10;;;15.97;;
10554;SDS011;5326;51.522;7.388;2022-10-15T05:48:31;18.60;;;15.63;;
10554;SDS011;5326;51.522;7.388;2022-10-15T05:51:04;15.37;;;13.77;;
10554;SDS011;5326;51.522;7.388;2022-10-15T05:53:32;15.97;;;13.80;;
10554;SDS011;5326;51.522;7.388;2022-10-15T05:55:59;16.73;;;13.63;;
10554;SDS011;5326;51.522;7.388;2022-10-15T05:58:26;12.27;;;9.40;;
10554;SDS011;5326;51.522;7.388;2022-10-15T06:00:59;13.73;;;12.33;;
10554;SDS011;5326;51.522;7.388;2022-10-15T06:03:27;16.83;;;15.13;;
10554;SDS011;5326;51.522;7.388;2022-10-15T06:05:53;17.50;;;14.87;;
10554;SDS011;5326;51.522;7.388;2022-10-15T06:08:20;17.87;;;15.43;;
10554;SDS011;5326;51.522;7.388;2022-10-15T06:10:47;17.00;;;13.40;;
10554;SDS011;5326;51.522;7.388;2022-10-15T06:13:14;13.67;;;12.33;;
10554;SDS011;5326;51.522;7.388;2022-10-15T06:15:42;14.27;;;11.20;;
10554;SDS011;5326;51.522;7.388;2022-10-15T06:18:12;14.50;;;13.00;;
10554;SDS011;5326;51.522;7.388;2022-10-15T06:20:41;12.30;;;10.57;;
10554;SDS011;5326;51.522;7.388;2022-10-15T06:23:09;12.73;;;11.07;;
10554;SDS011;5326;51.522;7.388;2022-10-15T06:25:36;13.10;;;10.87;;
10554;SDS011;5326;51.522;7.388;2022-10-15T06:28:04;12.90;;;11.13;;
10554;SDS011;5326;51.522;7.388;2022-10-15T06:30:32;19.47;;;15.37;;
10554;SDS011;5326;51.522;7.388;2022-10-15T06:32:59;12.47;;;11.20;;
10554;SDS011;5326;51.522;7.388;2022-10-15T06:35:25;18.77;;;16.77;;
10554;SDS011;5326;51.522;7.388;2022-10-15T06:37:55;15.07;;;13.47;;
10554;SDS011;5326;51.522;7.388;2022-10-15T06:40:28;19.93;;;15.87;;
10554;SDS011;5326;51.522;7.388;2022-10-15T06:43:02;17.53;;;15.73;;
10554;SDS011;5326;51.522;7.388;2022-10-15T06:45:34;20.47;;;18.33;;
10554;SDS011;5326;51.522;7.388;2022-10-15T06:48:02;25.43;;;19.60;;
10554;SDS011;5326;51.522;7.388;2022-10-15T06:50:33;23.63;;;19.17;;
10554;SDS011;5326;51.522;7.388;2022-10-15T06:53:01;23.17;;;20.77;;
10554;SDS011;5326;51.522;7.388;2022-10-15T06:55:28;28.57;;;21.60;;
10554;SDS011;5326;51.522;7.388;2022-10-15T06:57:55;26.43;;;22.40;;
10554;SDS011;5326;51.522;7.388;2022-10-15T07:00:23;27.13;;;22.90;;
10554;SDS011;5326;51.522;7.388;2022-10-15T07:02:50;30.97;;;23.03;;
10554;SDS011;5326;51.522;7.388;2022-10-15T07:05:17;27.63;;;22.97;;
10554;SDS011;5326;51.522;7.388;2022-10-15T07:07:51;29.60;;;23.33;;
10554;SDS011;5326;51.522;7.388;2022-10-15T07:10:18;26.67;;;22.97;;
10554;SDS011;5326;51.522;7.388;2022-10-15T07:12:50;30.23;;;24.37;;
10554;SDS011;5326;51.522;7.388;2022-10-15T07:15:17;28.17;;;25.03;;
10554;SDS011;5326;51.522;7.388;2022-10-15T07:20:14;30.13;;;25.80;;
10554;SDS011;5326;51.522;7.388;2022-10-15T07:22:48;31.90;;;24.60;;
10554;SDS011;5326;51.522;7.388;2022-10-15T07:25:15;31.37;;;25.87;;
10554;SDS011;5326;51.522;7.388;2022-10-15T07:27:42;33.90;;;26.67;;
10554;SDS011;5326;51.522;7.388;2022-10-15T07:30:09;27.40;;;24.40;;
10554;SDS011;5326;51.522;7.388;2022-10-15T07:32:36;32.53;;;25.83;;
10554;SDS011;5326;51.522;7.388;2022-10-15T07:35:02;32.90;;;26.13;;
10554;SDS011;5326;51.522;7.388;2022-10-15T07:37:30;29.17;;;24.17;;
10554;SDS011;5326;51.522;7.388;2022-10-15T07:39:57;32.83;;;26.27;;
10554;SDS011;5326;51.522;7.388;2022-10-15T07:42:23;29.93;;;24.80;;
10554;SDS011;5326;51.522;7.388;2022-10-15T07:44:50;27.30;;;23.93;;
10554;SDS011;5326;51.522;7.388;2022-10-15T07:47:17;37.07;;;27.83;;
10554;SDS011;5326;51.522;7.388;2022-10-15T07:49:43;27.80;;;24.80;;
10554;SDS011;5326;51.522;7.388;2022-10-15T07:52:10;27.77;;;23.90;;
10554;SDS011;5326;51.522;7.388;2022-10-15T07:54:36;28.87;;;24.03;;
10554;SDS011;5326;51.522;7.388;2022-10-15T07:57:03;33.07;;;23.93;;
10554;SDS011;5326;51.522;7.388;2022-10-15T07:59:32;28.40;;;24.03;;
10554;SDS011;5326;51.522;7.388;2022-10-15T08:01:59;28.87;;;23.83;;
10554;SDS011;5326;51.522;7.388;2022-10-15T08:04:26;33.00;;;25.47;;
10554;SDS011;5326;51.522;7.388;2022-10-15T08:06:53;31.10;;;25.20;;
10554;SDS011;5326;51.522;7.388;2022-10-15T08:09:19;28.77;;;23.03;;
10554;SDS011;5326;51.522;7.388;2022-10-15T08:11:46;30.43;;;24.30;;
10554;SDS011;5326;51.522;7.388;2022-10-15T08:14:13;26.93;;;22.73;;
10554;SDS011;5326;51.522;7.388;2022-10-15T08:16:39;29.00;;;24.50;;
10554;SDS011;5326;51.522;7.388;2022-10-15T08:19:06;27.83;;;23.07;;
10554;SDS011;5326;51.522;7.388;2022-10-15T08:21:33;29.07;;;23.67;;
10554;SDS011;5326;51.522;7.388;2022-10-15T08:23:59;26.57;;;22.60;;
10554;SDS011;5326;51.522;7.388;2022-10-15T08:26:26;29.47;;;23.73;;
10554;SDS011;5326;51.522;7.388;2022-10-15T08:28:52;25.83;;;22.10;;
10554;SDS011;5326;51.522;7.388;2022-10-15T08:31:19;26.93;;;21.90;;
10554;SDS011;5326;51.522;7.388;2022-10-15T08:33:45;23.13;;;20.63;;
10554;SDS011;5326;51.522;7.388;2022-10-15T08:36:12;36.37;;;30.00;;
10554;SDS011;5326;51.522;7.388;2022-10-15T08:38:38;24.67;;;20.60;;
10554;SDS011;5326;51.522;7.388;2022-10-15T08:41:10;19.87;;;17.77;;
10554;SDS011;5326;51.522;7.388;2022-10-15T08:43:45;22.03;;;17.50;;
10554;SDS011;5326;51.522;7.388;2022-10-15T08:46:35;18.53;;;16.50;;
10554;SDS011;5326;51.522;7.388;2022-10-15T08:49:02;17.23;;;15.30;;
10554;SDS011;5326;51.522;7.388;2022-10-15T08:51:37;25.83;;;19.90;;
10554;SDS011;5326;51.522;7.388;2022-10-15T08:54:08;17.80;;;16.00;;
10554;SDS011;5326;51.522;7.388;2022-10-15T08:56:42;16.47;;;14.77;;
10554;SDS011;5326;51.522;7.388;2022-10-15T09:09:52;16.77;;;14.83;;
10554;SDS011;5326;51.522;7.388;2022-10-15T09:15:13;17.23;;;13.97;;
10554;SDS011;5326;51.522;7.388;2022-10-15T09:17:40;16.67;;;11.87;;
10554;SDS011;5326;51.522;7.388;2022-10-15T09:20:18;10.47;;;9.47;;
10554;SDS011;5326;51.522;7.388;2022-10-15T09:22:49;9.97;;;8.17;;
10554;SDS011;5326;51.522;7.388;2022-10-15T09:25:20;7.53;;;6.60;;
10554;SDS011;5326;51.522;7.388;2022-10-15T09:27:48;9.30;;;7.10;;
10554;SDS011;5326;51.522;7.388;2022-10-15T09:32:58;7.47;;;6.40;;
10554;SDS011;5326;51.522;7.388;2022-10-15T09:35:29;6.33;;;5.73;;
10554;SDS011;5326;51.522;7.388;2022-10-15T09:43:31;6.50;;;5.83;;
10554;SDS011;5326;51.522;7.388;2022-10-15T09:46:01;5.30;;;4.50;;
10554;SDS011;5326;51.522;7.388;2022-10-15T09:48:32;3.77;;;3.47;;
10554;SDS011;5326;51.522;7.388;2022-10-15T09:51:23;3.63;;;3.30;;
10554;SDS011;5326;51.522;7.388;2022-10-15T09:54:16;3.03;;;2.80;;
10554;SDS011;5326;51.522;7.388;2022-10-15T09:56:51;2.50;;;2.30;;
10554;SDS011;5326;51.522;7.388;2022-10-15T09:59:20;2.33;;;2.17;;
10554;SDS011;5326;51.522;7.388;2022-10-15T10:04:28;2.87;;;1.87;;
10554;SDS011;5326;51.522;7.388;2022-10-15T10:06:56;1.83;;;1.73;;
10554;SDS011;5326;51.522;7.388;2022-10-15T10:09:35;1.60;;;1.40;;
10554;SDS011;5326;51.522;7.388;2022-10-15T10:12:05;2.07;;;1.87;;
10554;SDS011;5326;51.522;7.388;2022-10-15T10:14:52;1.80;;;1.70;;
10554;SDS011;5326;51.522;7.388;2022-10-15T10:17:21;2.63;;;1.40;;
10554;SDS011;5326;51.522;7.388;2022-10-15T10:20:08;2.73;;;1.40;;
10554;SDS011;5326;51.522;7.388;2022-10-15T10:22:49;1.70;;;1.60;;
10554;SDS011;5326;51.522;7.388;2022-10-15T10:30:35;1.43;;;1.33;;
10554;SDS011;5326;51.522;7.388;2022-10-15T10:33:04;1.40;;;1.30;;
10554;SDS011;5326;51.522;7.388;2022-10-15T10:35:34;1.40;;;1.10;;
10554;SDS011;5326;51.522;7.388;2022-10-15T10:38:17;2.73;;;1.50;;
10554;SDS011;5326;51.522;7.388;2022-10-15T10:40:49;1.50;;;1.40;;
10554;SDS011;5326;51.522;7.388;2022-10-15T10:43:22;2.00;;;1.63;;
10554;SDS011;5326;51.522;7.388;2022-10-15T10:48:25;1.83;;;1.73;;
10554;SDS011;5326;51.522;7.388;2022-10-15T10:51:01;3.73;;;1.70;;
10554;SDS011;5326;51.522;7.388;2022-10-15T10:59:08;1.00;;;0.90;;
10554;SDS011;5326;51.522;7.388;2022-10-15T11:01:38;1.93;;;1.83;;
10554;SDS011;5326;51.522;7.388;2022-10-15T11:04:09;2.10;;;0.87;;
10554;SDS011;5326;51.522;7.388;2022-10-15T11:29:13;2.43;;;2.00;;
10554;SDS011;5326;51.522;7.388;2022-10-15T11:48:00;0.80;;;0.80;;
10554;SDS011;5326;51.522;7.388;2022-10-15T11:50:48;2.77;;;1.00;;
10554;SDS011;5326;51.522;7.388;2022-10-15T11:58:40;3.17;;;1.00;;
10554;SDS011;5326;51.522;7.388;2022-10-15T12:01:48;1.00;;;1.00;;
10554;SDS011;5326;51.522;7.388;2022-10-15T12:07:45;1.63;;;1.10;;
10554;SDS011;5326;51.522;7.388;2022-10-15T12:21:01;1.90;;;0.87;;
10554;SDS011;5326;51.522;7.388;2022-10-15T12:28:49;1.07;;;0.90;;
10554;SDS011;5326;51.522;7.388;2022-10-15T12:31:17;2.40;;;1.07;;
10554;SDS011;5326;51.522;7.388;2022-10-15T12:33:46;1.90;;;0.90;;
10554;SDS011;5326;51.522;7.388;2022-10-15T12:36:20;2.27;;;0.90;;
10554;SDS011;5326;51.522;7.388;2022-10-15T12:39:03;3.47;;;1.23;;
10554;SDS011;5326;51.522;7.388;2022-10-15T12:42:17;2.30;;;1.00;;
10554;SDS011;5326;51.522;7.388;2022-10-15T12:44:51;2.53;;;1.00;;
10554;SDS011;5326;51.522;7.388;2022-10-15T12:50:22;0.97;;;0.97;;
10554;SDS011;5326;51.522;7.388;2022-10-15T12:57:57;3.57;;;1.10;;
10554;SDS011;5326;51.522;7.388;2022-10-15T13:02:51;7.80;;;5.00;;
10554;SDS011;5326;51.522;7.388;2022-10-15T13:05:29;2.67;;;1.30;;
10554;SDS011;5326;51.522;7.388;2022-10-15T13:07:58;0.97;;;0.90;;
10554;SDS011;5326;51.522;7.388;2022-10-15T13:10:29;0.90;;;0.90;;
10554;SDS011;5326;51.522;7.388;2022-10-15T13:13:02;2.40;;;0.90;;
10554;SDS011;5326;51.522;7.388;2022-10-15T13:15:30;1.07;;;0.97;;
10554;SDS011;5326;51.522;7.388;2022-10-15T13:17:58;0.90;;;0.87;;
10554;SDS011;5326;51.522;7.388;2022-10-15T13:28:38;2.13;;;0.90;;
10554;SDS011;5326;51.522;7.388;2022-10-15T13:31:14;1.77;;;0.90;;
10554;SDS011;5326;51.522;7.388;2022-10-15T13:33:43;1.07;;;0.90;;
10554;SDS011;5326;51.522;7.388;2022-10-15T13:36:19;2.50;;;1.00;;
10554;SDS011;5326;51.522;7.388;2022-10-15T13:39:03;2.40;;;1.00;;
10554;SDS011;5326;51.522;7.388;2022-10-15T13:41:37;1.80;;;0.90;;
10554;SDS011;5326;51.522;7.388;2022-10-15T13:44:05;2.50;;;1.00;;
10554;SDS011;5326;51.522;7.388;2022-10-15T13:46:35;2.23;;;1.53;;
10554;SDS011;5326;51.522;7.388;2022-10-15T13:49:08;2.10;;;1.10;;
10554;SDS011;5326;51.522;7.388;2022-10-15T13:51:38;2.17;;;1.17;;
10554;SDS011;5326;51.522;7.388;2022-10-15T13:54:07;2.47;;;1.97;;
10554;SDS011;5326;51.522;7.388;2022-10-15T13:56:36;1.10;;;1.00;;
10554;SDS011;5326;51.522;7.388;2022-10-15T13:59:03;2.37;;;1.20;;
10554;SDS011;5326;51.522;7.388;2022-10-15T14:01:30;1.00;;;0.90;;
10554;SDS011;5326;51.522;7.388;2022-10-15T14:03:59;2.13;;;1.70;;
10554;SDS011;5326;51.522;7.388;2022-10-15T14:06:32;3.10;;;1.20;;
10554;SDS011;5326;51.522;7.388;2022-10-15T14:09:22;4.27;;;1.03;;
10554;SDS011;5326;51.522;7.388;2022-10-15T14:11:52;2.37;;;1.20;;
10554;SDS011;5326;51.522;7.388;2022-10-15T14:14:31;1.17;;;1.07;;
10554;SDS011;5326;51.522;7.388;2022-10-15T14:16:59;3.00;;;1.10;;
10554;SDS011;5326;51.522;7.388;2022-10-15T14:19:28;1.80;;;1.00;;
10554;SDS011;5326;51.522;7.388;2022-10-15T14:21:56;1.57;;;1.20;;
10554;SDS011;5326;51.522;7.388;2022-10-15T14:27:03;1.80;;;1.00;;
10554;SDS011;5326;51.522;7.388;2022-10-15T14:29:39;1.20;;;1.10;;
10554;SDS011;5326;51.522;7.388;2022-10-15T14:34:53;3.03;;;1.10;;
10554;SDS011;5326;51.522;7.388;2022-10-15T14:37:37;2.83;;;1.27;;
10554;SDS011;5326;51.522;7.388;2022-10-15T14:42:37;2.33;;;1.30;;
10554;SDS011;5326;51.522;7.388;2022-10-15T14:47:42;1.23;;;1.03;;
10554;SDS011;5326;51.522;7.388;2022-10-15T14:50:11;1.63;;;0.93;;
10554;SDS011;5326;51.522;7.388;2022-10-15T14:52:39;1.23;;;1.03;;
10554;SDS011;5326;51.522;7.388;2022-10-15T14:57:48;1.03;;;0.97;;
10554;SDS011;5326;51.522;7.388;2022-10-15T15:02:47;8.90;;;1.50;;
10554;SDS011;5326;51.522;7.388;2022-10-15T15:05:18;2.10;;;1.40;;
10554;SDS011;5326;51.522;7.388;2022-10-15T15:07:47;2.37;;;1.50;;
10554;SDS011;5326;51.522;7.388;2022-10-15T15:10:14;2.10;;;1.17;;
10554;SDS011;5326;51.522;7.388;2022-10-15T15:12:45;1.40;;;1.20;;
10554;SDS011;5326;51.522;7.388;2022-10-15T15:15:17;1.83;;;1.13;;
10554;SDS011;5326;51.522;7.388;2022-10-15T15:17:45;2.87;;;1.10;;
10554;SDS011;5326;51.522;7.388;2022-10-15T15:20:11;1.20;;;1.03;;
10554;SDS011;5326;51.522;7.388;2022-10-15T15:22:38;3.83;;;1.40;;
10554;SDS011;5326;51.522;7.388;2022-10-15T15:25:14;9.70;;;2.27;;
10554;SDS011;5326;51.522;7.388;2022-10-15T15:27:41;4.70;;;1.93;;
10554;SDS011;5326;51.522;7.388;2022-10-15T15:30:13;3.87;;;1.70;;
10554;SDS011;5326;51.522;7.388;2022-10-15T15:32:47;1.63;;;1.40;;
10554;SDS011;5326;51.522;7.388;2022-10-15T15:35:17;2.67;;;1.70;;
10554;SDS011;5326;51.522;7.388;2022-10-15T15:37:45;3.23;;;1.23;;
10554;SDS011;5326;51.522;7.388;2022-10-15T15:40:12;4.63;;;1.80;;
10554;SDS011;5326;51.522;7.388;2022-10-15T15:42:39;3.70;;;1.80;;
10554;SDS011;5326;51.522;7.388;2022-10-15T15:45:09;2.60;;;1.60;;
10554;SDS011;5326;51.522;7.388;2022-10-15T15:47:42;2.50;;;1.60;;
10554;SDS011;5326;51.522;7.388;2022-10-15T15:50:08;4.80;;;1.60;;
10554;SDS011;5326;51.522;7.388;2022-10-15T15:52:35;3.33;;;1.53;;
10554;SDS011;5326;51.522;7.388;2022-10-15T15:55:06;2.47;;;1.40;;
10554;SDS011;5326;51.522;7.388;2022-10-15T15:57:33;4.03;;;1.67;;
10554;SDS011;5326;51.522;7.388;2022-10-15T15:59:59;3.17;;;1.80;;
10554;SDS011;5326;51.522;7.388;2022-10-15T16:02:26;3.47;;;1.70;;
10554;SDS011;5326;51.522;7.388;2022-10-15T16:04:52;6.43;;;1.80;;
10554;SDS011;5326;51.522;7.388;2022-10-15T16:07:19;1.93;;;1.67;;
10554;SDS011;5326;51.522;7.388;2022-10-15T16:09:48;3.30;;;1.60;;
10554;SDS011;5326;51.522;7.388;2022-10-15T16:12:15;3.93;;;1.87;;
10554;SDS011;5326;51.522;7.388;2022-10-15T16:14:41;2.90;;;1.60;;
10554;SDS011;5326;51.522;7.388;2022-10-15T16:17:08;3.67;;;1.80;;
10554;SDS011;5326;51.522;7.388;2022-10-15T16:19:34;1.77;;;1.63;;
10554;SDS011;5326;51.522;7.388;2022-10-15T16:22:01;6.27;;;2.30;;
10554;SDS011;5326;51.522;7.388;2022-10-15T16:24:28;2.40;;;1.70;;
10554;SDS011;5326;51.522;7.388;2022-10-15T16:26:54;1.63;;;1.53;;
10554;SDS011;5326;51.522;7.388;2022-10-15T16:29:21;4.57;;;4.03;;
10554;SDS011;5326;51.522;7.388;2022-10-15T16:31:47;3.03;;;2.00;;
10554;SDS011;5326;51.522;7.388;2022-10-15T16:34:14;4.40;;;1.60;;
10554;SDS011;5326;51.522;7.388;2022-10-15T16:36:41;4.80;;;1.57;;
10554;SDS011;5326;51.522;7.388;2022-10-15T16:39:08;2.60;;;1.40;;
10554;SDS011;5326;51.522;7.388;2022-10-15T16:41:35;2.73;;;1.47;;
10554;SDS011;5326;51.522;7.388;2022-10-15T16:44:01;2.30;;;1.77;;
10554;SDS011;5326;51.522;7.388;2022-10-15T16:46:28;3.53;;;1.60;;
10554;SDS011;5326;51.522;7.388;2022-10-15T16:48:54;1.80;;;1.60;;
10554;SDS011;5326;51.522;7.388;2022-10-15T16:51:22;4.13;;;1.70;;
10554;SDS011;5326;51.522;7.388;2022-10-15T16:53:49;4.33;;;1.73;;
10554;SDS011;5326;51.522;7.388;2022-10-15T16:56:17;3.40;;;2.00;;
10554;SDS011;5326;51.522;7.388;2022-10-15T16:58:46;2.20;;;2.00;;
10554;SDS011;5326;51.522;7.388;2022-10-15T17:01:14;2.27;;;1.90;;
10554;SDS011;5326;51.522;7.388;2022-10-15T17:03:42;2.63;;;1.83;;
10554;SDS011;5326;51.522;7.388;2022-10-15T17:06:14;4.30;;;2.20;;
10554;SDS011;5326;51.522;7.388;2022-10-15T17:08:47;3.17;;;1.97;;
10554;SDS011;5326;51.522;7.388;2022-10-15T17:11:33;5.17;;;2.73;;
10554;SDS011;5326;51.522;7.388;2022-10-15T17:14:05;3.97;;;3.30;;
10554;SDS011;5326;51.522;7.388;2022-10-15T17:16:36;3.87;;;2.73;;
10554;SDS011;5326;51.522;7.388;2022-10-15T17:19:04;3.67;;;2.93;;
10554;SDS011;5326;51.522;7.388;2022-10-15T17:21:31;18.40;;;13.23;;
10554;SDS011;5326;51.522;7.388;2022-10-15T17:23:59;5.67;;;3.73;;
10554;SDS011;5326;51.522;7.388;2022-10-15T17:26:30;4.90;;;3.37;;
10554;SDS011;5326;51.522;7.388;2022-10-15T17:29:02;4.33;;;3.50;;
10554;SDS011;5326;51.522;7.388;2022-10-15T17:31:29;4.03;;;3.27;;
10554;SDS011;5326;51.522;7.388;2022-10-15T17:33:57;4.47;;;3.37;;
10554;SDS011;5326;51.522;7.388;2022-10-15T17:36:28;5.27;;;3.50;;
10554;SDS011;5326;51.522;7.388;2022-10-15T17:38:57;7.67;;;3.80;;
10554;SDS011;5326;51.522;7.388;2022-10-15T17:41:25;6.00;;;3.30;;
10554;SDS011;5326;51.522;7.388;2022-10-15T17:43:53;4.20;;;3.57;;
10554;SDS011;5326;51.522;7.388;2022-10-15T17:46:21;11.27;;;6.20;;
10554;SDS011;5326;51.522;7.388;2022-10-15T17:48:52;7.67;;;4.77;;
10554;SDS011;5326;51.522;7.388;2022-10-15T17:51:20;4.60;;;3.00;;
10554;SDS011;5326;51.522;7.388;2022-10-15T17:53:52;3.10;;;2.50;;